Franklin, North Carolina
Current Conditions -  °F | °C
As of 8:15 PM on Tuesday 27 Jan 2015 (Local Time) from KRHP Reporting Station
Overcast Overcast  
Wind Chill: 33°   Ceiling: 2800
Heat Index: 33°   Visibility: 10mi
Dew Point: 26°   Wind: 3mph
Humidity: 73%   Direction: 20°NNE
Pressure: 30.06"   Gusts: NA
Location:  35.18°N, 83.38°W
Report Text: KRHP 280115Z AUTO 02003KT 10SM OVC028 01/M04 A3006 RMK AO2 T00071036
Loading
Personal Weather Stations






























Interactive Weather Map New forecast layout! Learn more

10-Day Weather Forecast

Advertisements
Track Severe Weather on mobile